sensor_id;sensor_type;location;lat;lon;timestamp;P1;durP1;ratioP1;P2;durP2;ratioP2
24301;SDS011;12421;49.732;20.078;2022-12-11T00:00:26;9.70;;;6.40;;
24301;SDS011;12421;49.732;20.078;2022-12-11T00:10:50;9.80;;;6.30;;
24301;SDS011;12421;49.732;20.078;2022-12-11T00:20:54;11.70;;;7.70;;
24301;SDS011;12421;49.732;20.078;2022-12-11T00:30:58;9.70;;;6.40;;
24301;SDS011;12421;49.732;20.078;2022-12-11T00:41:02;11.30;;;6.20;;
24301;SDS011;12421;49.732;20.078;2022-12-11T00:51:06;8.40;;;5.20;;
24301;SDS011;12421;49.732;20.078;2022-12-11T01:01:11;10.40;;;6.80;;
24301;SDS011;12421;49.732;20.078;2022-12-11T01:11:18;8.10;;;5.90;;
24301;SDS011;12421;49.732;20.078;2022-12-11T01:21:23;10.10;;;6.90;;
24301;SDS011;12421;49.732;20.078;2022-12-11T01:31:28;9.10;;;5.90;;
24301;SDS011;12421;49.732;20.078;2022-12-11T01:41:32;6.80;;;4.60;;
24301;SDS011;12421;49.732;20.078;2022-12-11T01:51:38;7.80;;;5.70;;
24301;SDS011;12421;49.732;20.078;2022-12-11T02:01:51;8.50;;;5.60;;
24301;SDS011;12421;49.732;20.078;2022-12-11T02:12:02;9.40;;;5.90;;
24301;SDS011;12421;49.732;20.078;2022-12-11T02:22:08;11.30;;;7.50;;
24301;SDS011;12421;49.732;20.078;2022-12-11T02:32:25;10.60;;;7.00;;
24301;SDS011;12421;49.732;20.078;2022-12-11T02:42:38;7.90;;;5.40;;
24301;SDS011;12421;49.732;20.078;2022-12-11T02:52:44;7.20;;;5.50;;
24301;SDS011;12421;49.732;20.078;2022-12-11T03:02:51;6.20;;;4.30;;
24301;SDS011;12421;49.732;20.078;2022-12-11T03:12:55;8.00;;;5.50;;
24301;SDS011;12421;49.732;20.078;2022-12-11T03:23:03;9.10;;;5.80;;
24301;SDS011;12421;49.732;20.078;2022-12-11T03:33:36;10.20;;;6.30;;
24301;SDS011;12421;49.732;20.078;2022-12-11T03:43:45;10.00;;;7.00;;
24301;SDS011;12421;49.732;20.078;2022-12-11T03:53:52;9.50;;;6.10;;
24301;SDS011;12421;49.732;20.078;2022-12-11T04:03:57;8.80;;;5.90;;
24301;SDS011;12421;49.732;20.078;2022-12-11T04:14:08;8.50;;;5.40;;
24301;SDS011;12421;49.732;20.078;2022-12-11T04:24:33;9.00;;;6.10;;
24301;SDS011;12421;49.732;20.078;2022-12-11T04:34:37;7.50;;;4.70;;
24301;SDS011;12421;49.732;20.078;2022-12-11T04:44:43;7.70;;;4.90;;
24301;SDS011;12421;49.732;20.078;2022-12-11T04:54:47;8.70;;;5.30;;
24301;SDS011;12421;49.732;20.078;2022-12-11T05:04:51;8.00;;;5.60;;
24301;SDS011;12421;49.732;20.078;2022-12-11T05:14:55;5.30;;;4.00;;
24301;SDS011;12421;49.732;20.078;2022-12-11T05:24:59;7.90;;;5.20;;
24301;SDS011;12421;49.732;20.078;2022-12-11T05:35:03;5.10;;;3.80;;
24301;SDS011;12421;49.732;20.078;2022-12-11T05:45:07;9.10;;;5.30;;
24301;SDS011;12421;49.732;20.078;2022-12-11T05:55:12;8.40;;;5.30;;
24301;SDS011;12421;49.732;20.078;2022-12-11T06:05:16;7.30;;;4.50;;
24301;SDS011;12421;49.732;20.078;2022-12-11T06:15:20;6.80;;;4.50;;
24301;SDS011;12421;49.732;20.078;2022-12-11T06:25:24;7.60;;;4.90;;
24301;SDS011;12421;49.732;20.078;2022-12-11T06:35:28;6.90;;;4.90;;
24301;SDS011;12421;49.732;20.078;2022-12-11T06:45:32;7.20;;;5.00;;
24301;SDS011;12421;49.732;20.078;2022-12-11T06:55:36;7.20;;;4.90;;
24301;SDS011;12421;49.732;20.078;2022-12-11T07:05:40;8.20;;;5.10;;
24301;SDS011;12421;49.732;20.078;2022-12-11T07:15:44;9.60;;;5.60;;
24301;SDS011;12421;49.732;20.078;2022-12-11T07:25:48;7.80;;;5.50;;
24301;SDS011;12421;49.732;20.078;2022-12-11T07:35:52;7.20;;;4.80;;
24301;SDS011;12421;49.732;20.078;2022-12-11T07:46:03;9.10;;;6.20;;
24301;SDS011;12421;49.732;20.078;2022-12-11T07:56:12;8.30;;;5.50;;
24301;SDS011;12421;49.732;20.078;2022-12-11T08:06:16;8.40;;;5.10;;
24301;SDS011;12421;49.732;20.078;2022-12-11T08:16:21;8.00;;;5.60;;
24301;SDS011;12421;49.732;20.078;2022-12-11T08:26:27;9.90;;;6.50;;
24301;SDS011;12421;49.732;20.078;2022-12-11T08:36:32;8.90;;;5.30;;
24301;SDS011;12421;49.732;20.078;2022-12-11T08:46:37;8.30;;;5.10;;
24301;SDS011;12421;49.732;20.078;2022-12-11T08:56:42;11.70;;;6.60;;
24301;SDS011;12421;49.732;20.078;2022-12-11T09:06:47;10.30;;;7.10;;
24301;SDS011;12421;49.732;20.078;2022-12-11T09:16:52;9.10;;;6.20;;
24301;SDS011;12421;49.732;20.078;2022-12-11T09:26:56;8.40;;;6.00;;
24301;SDS011;12421;49.732;20.078;2022-12-11T09:37:00;9.30;;;6.20;;
24301;SDS011;12421;49.732;20.078;2022-12-11T09:58:49;8.90;;;6.00;;
24301;SDS011;12421;49.732;20.078;2022-12-11T10:18:53;8.20;;;5.40;;
24301;SDS011;12421;49.732;20.078;2022-12-11T10:28:58;9.00;;;6.20;;
24301;SDS011;12421;49.732;20.078;2022-12-11T10:39:13;8.30;;;6.30;;
24301;SDS011;12421;49.732;20.078;2022-12-11T10:49:24;8.80;;;6.10;;
24301;SDS011;12421;49.732;20.078;2022-12-11T11:09:46;8.20;;;5.60;;
24301;SDS011;12421;49.732;20.078;2022-12-11T11:19:51;11.10;;;7.40;;
24301;SDS011;12421;49.732;20.078;2022-12-11T11:29:56;11.70;;;7.90;;
24301;SDS011;12421;49.732;20.078;2022-12-11T11:40:11;15.00;;;10.00;;
24301;SDS011;12421;49.732;20.078;2022-12-11T11:50:27;17.80;;;10.60;;
24301;SDS011;12421;49.732;20.078;2022-12-11T12:00:37;18.80;;;11.90;;
24301;SDS011;12421;49.732;20.078;2022-12-11T12:11:03;16.50;;;11.80;;
24301;SDS011;12421;49.732;20.078;2022-12-11T12:31:29;16.50;;;12.00;;
24301;SDS011;12421;49.732;20.078;2022-12-11T12:41:59;21.30;;;12.10;;
24301;SDS011;12421;49.732;20.078;2022-12-11T13:02:45;15.80;;;11.10;;
24301;SDS011;12421;49.732;20.078;2022-12-11T13:12:53;17.40;;;11.50;;
24301;SDS011;12421;49.732;20.078;2022-12-11T13:33:16;17.20;;;11.40;;
24301;SDS011;12421;49.732;20.078;2022-12-11T13:43:23;18.30;;;12.00;;
24301;SDS011;12421;49.732;20.078;2022-12-11T13:53:30;16.60;;;11.90;;
24301;SDS011;12421;49.732;20.078;2022-12-11T14:03:38;22.70;;;14.30;;
24301;SDS011;12421;49.732;20.078;2022-12-11T14:13:45;20.70;;;11.90;;
24301;SDS011;12421;49.732;20.078;2022-12-11T14:23:51;23.20;;;14.10;;
24301;SDS011;12421;49.732;20.078;2022-12-11T14:34:01;21.90;;;13.10;;
24301;SDS011;12421;49.732;20.078;2022-12-11T14:44:13;21.60;;;12.70;;
24301;SDS011;12421;49.732;20.078;2022-12-11T14:54:30;20.60;;;14.40;;
24301;SDS011;12421;49.732;20.078;2022-12-11T15:04:41;24.60;;;15.40;;
24301;SDS011;12421;49.732;20.078;2022-12-11T15:14:48;25.10;;;16.70;;
24301;SDS011;12421;49.732;20.078;2022-12-11T15:24:57;22.70;;;16.10;;
24301;SDS011;12421;49.732;20.078;2022-12-11T15:45:26;31.30;;;18.40;;
24301;SDS011;12421;49.732;20.078;2022-12-11T15:55:32;27.00;;;17.10;;
24301;SDS011;12421;49.732;20.078;2022-12-11T16:05:38;55.40;;;29.00;;
24301;SDS011;12421;49.732;20.078;2022-12-11T16:15:45;32.40;;;18.80;;
24301;SDS011;12421;49.732;20.078;2022-12-11T16:25:53;31.60;;;18.80;;
24301;SDS011;12421;49.732;20.078;2022-12-11T16:35:58;26.80;;;17.30;;
24301;SDS011;12421;49.732;20.078;2022-12-11T16:46:03;23.10;;;14.50;;
24301;SDS011;12421;49.732;20.078;2022-12-11T16:56:12;27.00;;;16.30;;
24301;SDS011;12421;49.732;20.078;2022-12-11T17:06:17;25.90;;;13.80;;
24301;SDS011;12421;49.732;20.078;2022-12-11T17:16:23;22.50;;;14.30;;
24301;SDS011;12421;49.732;20.078;2022-12-11T17:26:32;23.40;;;14.50;;
24301;SDS011;12421;49.732;20.078;2022-12-11T17:36:37;21.30;;;14.00;;
24301;SDS011;12421;49.732;20.078;2022-12-11T17:46:42;24.40;;;14.70;;
24301;SDS011;12421;49.732;20.078;2022-12-11T17:56:48;17.30;;;10.80;;
24301;SDS011;12421;49.732;20.078;2022-12-11T18:06:54;18.60;;;12.00;;
24301;SDS011;12421;49.732;20.078;2022-12-11T18:17:01;20.80;;;13.40;;
24301;SDS011;12421;49.732;20.078;2022-12-11T18:37:15;23.10;;;14.40;;
24301;SDS011;12421;49.732;20.078;2022-12-11T18:47:30;24.80;;;15.80;;
24301;SDS011;12421;49.732;20.078;2022-12-11T18:57:36;22.40;;;14.60;;
24301;SDS011;12421;49.732;20.078;2022-12-11T19:07:40;30.50;;;16.20;;
24301;SDS011;12421;49.732;20.078;2022-12-11T19:17:48;29.20;;;17.70;;
24301;SDS011;12421;49.732;20.078;2022-12-11T19:27:54;26.40;;;17.80;;
24301;SDS011;12421;49.732;20.078;2022-12-11T19:38:01;29.10;;;18.30;;
24301;SDS011;12421;49.732;20.078;2022-12-11T19:48:06;28.00;;;17.80;;
24301;SDS011;12421;49.732;20.078;2022-12-11T19:58:12;29.70;;;18.10;;
24301;SDS011;12421;49.732;20.078;2022-12-11T20:08:18;29.40;;;18.70;;
24301;SDS011;12421;49.732;20.078;2022-12-11T20:18:43;28.40;;;18.00;;
24301;SDS011;12421;49.732;20.078;2022-12-11T20:28:54;27.20;;;17.10;;
24301;SDS011;12421;49.732;20.078;2022-12-11T20:39:00;25.30;;;14.60;;
24301;SDS011;12421;49.732;20.078;2022-12-11T20:49:08;27.70;;;17.30;;
24301;SDS011;12421;49.732;20.078;2022-12-11T20:59:16;25.90;;;15.30;;
24301;SDS011;12421;49.732;20.078;2022-12-11T21:09:24;22.70;;;13.50;;
24301;SDS011;12421;49.732;20.078;2022-12-11T21:19:29;24.60;;;15.50;;
24301;SDS011;12421;49.732;20.078;2022-12-11T21:29:33;26.40;;;16.20;;
24301;SDS011;12421;49.732;20.078;2022-12-11T21:39:38;24.40;;;14.90;;
24301;SDS011;12421;49.732;20.078;2022-12-11T21:49:45;27.30;;;14.60;;
24301;SDS011;12421;49.732;20.078;2022-12-11T21:59:50;19.70;;;11.90;;
24301;SDS011;12421;49.732;20.078;2022-12-11T22:09:54;22.80;;;12.30;;
24301;SDS011;12421;49.732;20.078;2022-12-11T22:19:58;23.60;;;14.20;;
24301;SDS011;12421;49.732;20.078;2022-12-11T22:30:03;21.20;;;13.30;;
24301;SDS011;12421;49.732;20.078;2022-12-11T22:40:07;21.60;;;13.00;;
24301;SDS011;12421;49.732;20.078;2022-12-11T22:50:11;21.90;;;12.80;;
24301;SDS011;12421;49.732;20.078;2022-12-11T23:00:16;19.30;;;12.40;;
24301;SDS011;12421;49.732;20.078;2022-12-11T23:10:20;20.50;;;12.60;;
24301;SDS011;12421;49.732;20.078;2022-12-11T23:20:24;18.10;;;11.60;;
24301;SDS011;12421;49.732;20.078;2022-12-11T23:30:28;20.90;;;13.00;;
24301;SDS011;12421;49.732;20.078;2022-12-11T23:40:32;21.30;;;12.80;;
24301;SDS011;12421;49.732;20.078;2022-12-11T23:50:37;21.00;;;12.80;;
